Nilos — 9HA3981 — position and weather

sailwx.info

Track history (hours):
 
Tides and Currents Weather Stations Pressure Air Temp Water Temp Dewpoint Dewpoint Depression Visibility Wind Speed Wind Dir Waves Ship Positions

Nilos

Last reported at 2017-Dec-15 15:30 UTC. Time now 2017-Dec-15 15:45 UTC.
Position N 46°06' W 122°56'.

Length 225 m; draft 6.5 m.

Type: Cargo ship. MMSI: 256683000.

Date/timePositionNaut miles runAvg speedWind from/ knotsBaromVisibWave heightAir tempDewpointWater temp
2017-Dec-15 15:30N 46°06' W 122°56'0 0.0
2017-Dec-15 14:57N 46°06' W 122°56'0 0.8
2017-Dec-15 14:30N 46°06' W 122°57'5 8.6
2017-Dec-15 13:54N 46°09' W 123°03'411.2
2017-Dec-15 13:30N 46°11' W 123°08'11 9.7
2017-Dec-15 12:23N 46°09' W 123°24'3 9.0
2017-Dec-15 12:01N 46°13' W 123°26'5 9.9
2017-Dec-15 11:30N 46°16' W 123°31'611.3
2017-Dec-15 11:00N 46°16' W 123°39'511.0
2017-Dec-15 10:30N 46°13' W 123°46'2 3.7
2017-Dec-15 09:51N 46°12' W 123°49'0 0.1
2017-Dec-15 09:21N 46°12' W 123°49'0 0.1
2017-Dec-15 09:00N 46°12' W 123°49'0 0.1
2017-Dec-15 08:30N 46°12' W 123°49'0 0.3
2017-Dec-15 07:59N 46°12' W 123°49'0 0.2
2017-Dec-15 07:30N 46°12' W 123°49'0 0.0
2017-Dec-15 07:00N 46°12' W 123°49'0 0.1
2017-Dec-15 06:06N 46°12' W 123°49'0 0.0
2017-Dec-15 05:56N 46°12' W 123°49'0 0.0
2017-Dec-15 05:00N 46°12' W 123°49'0 0.4
2017-Dec-15 04:30N 46°12' W 123°49'0 0.3
2017-Dec-15 04:00N 46°12' W 123°49'0 0.0
2017-Dec-15 02:30N 46°12' W 123°49'0 0.0
2017-Dec-15 00:59N 46°12' W 123°49'0 0.0
2017-Dec-15 00:29N 46°12' W 123°49'0 0.0
2017-Dec-14 18:30N 46°12' W 123°49'0 0.2
2017-Dec-14 17:59N 46°12' W 123°49'0 0.1
2017-Dec-14 17:29N 46°12' W 123°49'0 0.1
2017-Dec-14 16:57N 46°12' W 123°49'0 0.1
2017-Dec-14 16:29N 46°12' W 123°49'0 0.1
2017-Dec-14 15:59N 46°12' W 123°49'0 0.3
2017-Dec-14 15:00N 46°12' W 123°49'0 0.0
2017-Dec-14 14:30N 46°12' W 123°49'0 0.0
2017-Dec-14 13:59N 46°12' W 123°49'0 0.0
2017-Dec-14 13:29N 46°12' W 123°49'0 0.0
2017-Dec-14 12:59N 46°12' W 123°49'0 0.0
2017-Dec-14 12:30N 46°12' W 123°49'0 0.0
2017-Dec-14 12:00N 46°12' W 123°49'0 0.0
2017-Dec-14 11:29N 46°12' W 123°49'0 0.0
2017-Dec-14 11:00N 46°12' W 123°49'0 0.0
2017-Dec-14 10:29N 46°12' W 123°49'0 0.0
2017-Dec-14 10:00N 46°12' W 123°49'0 0.0
2017-Dec-14 09:23N 46°12' W 123°49'0 0.0
2017-Dec-14 09:00N 46°12' W 123°49'0 0.0
2017-Dec-14 08:30N 46°12' W 123°49'0 0.0
2017-Dec-14 07:57N 46°12' W 123°49'0 0.0
2017-Dec-14 07:30N 46°12' W 123°49'0 0.2
2017-Dec-14 07:00N 46°12' W 123°49'0 0.4
2017-Dec-14 06:30N 46°12' W 123°49'0 0.1
2017-Dec-14 06:00N 46°12' W 123°49'0 0.1
2017-Dec-14 05:30N 46°12' W 123°49'0 0.1
2017-Dec-14 05:00N 46°12' W 123°49'0 0.2
2017-Dec-14 04:30N 46°12' W 123°49'0 0.4
2017-Dec-14 03:57N 46°12' W 123°49'0 0.1
2017-Dec-14 03:30N 46°12' W 123°49'0 0.0
2017-Dec-14 03:00N 46°12' W 123°49'0 0.0
2017-Dec-14 02:27N 46°12' W 123°49'0 0.0
2017-Dec-14 01:57N 46°12' W 123°49'0 0.0
2017-Dec-14 01:30N 46°12' W 123°49'0 0.0
2017-Dec-14 01:00N 46°12' W 123°49'0 0.0
2017-Dec-14 00:30N 46°12' W 123°49'0 0.0
2017-Dec-14 00:00N 46°12' W 123°49'0 0.0
2017-Dec-13 23:14N 46°12' W 123°49'0 0.0
2017-Dec-13 23:00N 46°12' W 123°49'0 0.0
2017-Dec-13 22:27N 46°12' W 123°49'0 0.0
2017-Dec-13 22:00N 46°12' W 123°49'0 0.0
2017-Dec-13 21:29N 46°12' W 123°49'0 0.0
2017-Dec-13 20:42N 46°12' W 123°49'0 0.0
2017-Dec-13 20:30N 46°12' W 123°49'0 0.0
2017-Dec-13 19:57N 46°12' W 123°49'0 0.1
2017-Dec-13 19:30N 46°12' W 123°49'0 0.1
2017-Dec-13 19:00N 46°12' W 123°49'0 0.1
2017-Dec-13 18:30N 46°12' W 123°49'0 0.3
2017-Dec-13 18:00N 46°12' W 123°49'0 0.2
2017-Dec-13 17:30N 46°12' W 123°49'0 0.1
2017-Dec-13 17:00N 46°12' W 123°49'0 0.1
2017-Dec-13 16:30N 46°12' W 123°49'0 0.0
2017-Dec-13 15:59N 46°12' W 123°49'0 0.1
2017-Dec-13 15:30N 46°12' W 123°49'0 0.4
2017-Dec-13 15:00N 46°12' W 123°49'0 0.1
2017-Dec-13 14:30N 46°12' W 123°49'0 0.0
2017-Dec-13 14:00N 46°12' W 123°49'0 0.0
2017-Dec-13 13:30N 46°12' W 123°49'0 0.0
2017-Dec-13 13:00N 46°12' W 123°49'0 0.0
2017-Dec-13 12:29N 46°12' W 123°49'0 0.0
2017-Dec-13 11:59N 46°12' W 123°49'0 0.0
2017-Dec-13 11:29N 46°12' W 123°49'0 0.0
2017-Dec-13 11:00N 46°12' W 123°49'0 0.0
2017-Dec-13 10:30N 46°12' W 123°49'0 0.0
2017-Dec-13 09:59N 46°12' W 123°49'0 0.0
2017-Dec-13 09:30N 46°12' W 123°49'0 0.0
2017-Dec-13 09:00N 46°12' W 123°49'0 0.0
2017-Dec-13 08:30N 46°12' W 123°49'0 0.0
2017-Dec-13 07:45N 46°12' W 123°49'0 0.0
2017-Dec-13 07:30N 46°12' W 123°49'0 0.0
2017-Dec-13 07:00N 46°12' W 123°49'0 0.0
2017-Dec-13 06:30N 46°12' W 123°49'0 0.0
2017-Dec-13 05:59N 46°12' W 123°49'0 0.2
2017-Dec-13 05:30N 46°12' W 123°49'0 0.1
2017-Dec-13 04:59N 46°12' W 123°49'0 0.1
2017-Dec-13 04:30N 46°12' W 123°49'0 0.0
2017-Dec-13 04:00N 46°12' W 123°49'0 0.0
2017-Dec-13 03:30N 46°12' W 123°49'0 0.0
2017-Dec-13 03:00N 46°12' W 123°49'0 0.0
2017-Dec-13 02:30N 46°12' W 123°49'0 0.0
2017-Dec-13 01:27N 46°12' W 123°49'0 0.0
2017-Dec-13 01:00N 46°12' W 123°49'0 0.0
2017-Dec-13 00:30N 46°12' W 123°49'0 0.0
2017-Dec-12 23:59N 46°12' W 123°49'0 0.0
2017-Dec-12 23:30N 46°12' W 123°49'0 0.0
2017-Dec-12 23:00N 46°12' W 123°49'0 0.0
2017-Dec-12 22:26N 46°12' W 123°49'0 0.0
2017-Dec-12 21:59N 46°12' W 123°49'0 0.0
2017-Dec-12 21:30N 46°12' W 123°49'0 0.0
2017-Dec-12 20:59N 46°12' W 123°49'0 0.0
2017-Dec-12 20:30N 46°12' W 123°49'0 0.0
2017-Dec-12 19:59N 46°12' W 123°49'0 0.0
2017-Dec-12 18:44N 46°12' W 123°49'0 0.1
2017-Dec-12 18:29N 46°12' W 123°49'0 0.0
2017-Dec-12 17:59N 46°12' W 123°49'0 0.3
2017-Dec-12 17:30N 46°12' W 123°49'0 0.2
2017-Dec-12 17:00N 46°12' W 123°49'0 0.0
2017-Dec-12 16:30N 46°12' W 123°49'0 0.1
2017-Dec-12 16:00N 46°12' W 123°49'0 0.1
2017-Dec-12 15:30N 46°12' W 123°49'0 0.0
2017-Dec-12 15:00N 46°12' W 123°49'0 0.2
2017-Dec-12 14:30N 46°12' W 123°49'0 0.4
2017-Dec-12 14:00N 46°12' W 123°49'0 0.0
2017-Dec-12 13:29N 46°12' W 123°49'0 0.1
2017-Dec-12 13:00N 46°12' W 123°49'0 0.0
2017-Dec-12 12:30N 46°12' W 123°49'0 0.0
2017-Dec-12 12:00N 46°12' W 123°49'0 0.0
2017-Dec-12 11:30N 46°12' W 123°49'0 0.0
2017-Dec-12 11:00N 46°12' W 123°49'0 0.0
2017-Dec-12 10:27N 46°12' W 123°49'0 0.0
2017-Dec-12 10:00N 46°12' W 123°49'0 0.0
2017-Dec-12 09:29N 46°12' W 123°49'0 0.0
2017-Dec-12 08:59N 46°12' W 123°49'0 0.2
2017-Dec-12 08:30N 46°12' W 123°49'1 2.5
2017-Dec-12 08:00N 46°12' W 123°51'4 7.3
2017-Dec-12 07:30N 46°12' W 123°56'5 9.6
2017-Dec-12 07:00N 46°15' W 124°01'5 9.2
2017-Dec-12 06:30N 46°14' W 124°07'610.6
2017-Dec-12 05:57N 46°12' W 124°15'6 8.3
2017-Dec-12 05:12N 46°11' W 124°24'1 7.1
2017-Dec-12 05:00N 46°10' W 124°26'0 0.5
2017-Dec-12 04:30N 46°11' W 124°26'0 0.8
2017-Dec-12 04:00N 46°11' W 124°25'0 0.9
2017-Dec-12 03:30N 46°11' W 124°26'3 5.9
2017-Dec-12 03:00N 46°12' W 124°30'1 2.1
2017-Dec-12 02:27N 46°12' W 124°31'1 1.3
2017-Dec-12 02:01N 46°12' W 124°31'1 0.8
2017-Dec-12 01:20N 46°11' W 124°30'0 1.4
2017-Dec-12 01:00N 46°11' W 124°31'510.4
2017-Dec-12 00:30N 46°13' W 124°38'611.8
2017-Dec-12 00:00N 46°14' W 124°47'713.2
2017-Dec-11 23:30N 46°14' W 124°56'713.2
2017-Dec-11 23:00N 46°15' W 125°05'713.6
2017-Dec-11 22:30N 46°15' W 125°15'713.3
2017-Dec-11 22:01N 46°16' W 125°25'713.4
2017-Dec-11 21:30N 46°17' W 125°35'713.4
2017-Dec-11 21:01N 46°18' W 125°44'713.3
2017-Dec-11 20:30N 46°18' W 125°54'713.3
2017-Dec-11 20:00N 46°19' W 126°03'713.4
2017-Dec-11 19:30N 46°20' W 126°13'813.0
2017-Dec-11 18:55N 46°21' W 126°24'1013.1
2017-Dec-11 18:08N 46°22' W 126°38'213.0
2017-Dec-11 18:00N 46°22' W 126°41'712.9
2017-Dec-11 17:27N 46°23' W 126°51'612.7
2017-Dec-11 17:00N 46°23' W 126°59'612.8
2017-Dec-11 16:30N 46°24' W 127°09'612.9
2017-Dec-11 16:01N 46°24' W 127°18'612.9
2017-Dec-11 15:31N 46°25' W 127°27'612.9
2017-Dec-11 15:00N 46°26' W 127°37'612.9
2017-Dec-11 14:30N 46°26' W 127°46'613.0
2017-Dec-11 14:00N 46°27' W 127°55'713.1
2017-Dec-11 13:30N 46°28' W 128°05'613.1
2017-Dec-11 13:01N 46°28' W 128°14'713.1
2017-Dec-11 12:30N 46°29' W 128°24'713.3
2017-Dec-11 12:00N 46°30' W 128°33'713.1
2017-Dec-11 11:29N 46°31' W 128°43'613.0
2017-Dec-11 11:00N 46°31' W 128°52'713.1
2017-Dec-11 10:30N 46°32' W 129°02'612.9
2017-Dec-11 10:01N 46°34' W 129°10'713.3
2017-Dec-11 09:31N 46°36' W 129°19'713.1
2017-Dec-11 09:01N 46°39' W 129°28'612.5
2017-Dec-11 08:30N 46°41' W 129°37'612.5
2017-Dec-11 08:01N 46°43' W 129°45'612.5
2017-Dec-11 07:31N 46°45' W 129°54'713.0
2017-Dec-11 07:00N 46°48' W 130°03'612.8
2017-Dec-11 06:30N 46°50' W 130°12'612.8
2017-Dec-11 06:00N 46°52' W 130°20'612.6
2017-Dec-11 05:30N 46°54' W 130°29'612.8
2017-Dec-11 05:00N 46°56' W 130°38'612.6
2017-Dec-11 04:30N 46°58' W 130°47'712.6
2017-Dec-11 03:57N 47°01' W 130°56'912.6
2017-Dec-11 03:14N 47°04' W 131°09'312.4
2017-Dec-11 02:59N 47°05' W 131°13'612.5
2017-Dec-11 02:30N 47°07' W 131°21'612.6
2017-Dec-11 02:00N 47°09' W 131°30'612.4
2017-Dec-11 01:30N 47°11' W 131°39'612.6
2017-Dec-11 01:00N 47°13' W 131°47'1412.4
2017-Dec-10 23:52N 47°18' W 132°07'412.1
2017-Dec-10 23:30N 47°19' W 132°13'  
Track history (hours):
 
Tides and Currents Weather Stations Pressure Air Temp Water Temp Dewpoint Dewpoint Depression Visibility Wind Speed Wind Dir Waves Ship Positions

Nilos

Last reported at 2017-Dec-15 15:30 UTC. Time now 2017-Dec-15 15:45 UTC.
Position N 46°06' W 122°56'.

Length 225 m; draft 6.5 m.

Type: Cargo ship. MMSI: 256683000.

Date/timePositionNaut miles runAvg speedWind from/ knotsBaromVisibWave heightAir tempDewpointWater temp
2017-Dec-15 15:30N 46°06' W 122°56'0 0.0
2017-Dec-15 14:57N 46°06' W 122°56'0 0.8
2017-Dec-15 14:30N 46°06' W 122°57'5 8.6
2017-Dec-15 13:54N 46°09' W 123°03'411.2
2017-Dec-15 13:30N 46°11' W 123°08'11 9.7
2017-Dec-15 12:23N 46°09' W 123°24'3 9.0
2017-Dec-15 12:01N 46°13' W 123°26'5 9.9
2017-Dec-15 11:30N 46°16' W 123°31'611.3
2017-Dec-15 11:00N 46°16' W 123°39'511.0
2017-Dec-15 10:30N 46°13' W 123°46'2 3.7
2017-Dec-15 09:51N 46°12' W 123°49'0 0.1
2017-Dec-15 09:21N 46°12' W 123°49'0 0.1
2017-Dec-15 09:00N 46°12' W 123°49'0 0.1
2017-Dec-15 08:30N 46°12' W 123°49'0 0.3
2017-Dec-15 07:59N 46°12' W 123°49'0 0.2
2017-Dec-15 07:30N 46°12' W 123°49'0 0.0
2017-Dec-15 07:00N 46°12' W 123°49'0 0.1
2017-Dec-15 06:06N 46°12' W 123°49'0 0.0
2017-Dec-15 05:56N 46°12' W 123°49'0 0.0
2017-Dec-15 05:00N 46°12' W 123°49'0 0.4
2017-Dec-15 04:30N 46°12' W 123°49'0 0.3
2017-Dec-15 04:00N 46°12' W 123°49'0 0.0
2017-Dec-15 02:30N 46°12' W 123°49'0 0.0
2017-Dec-15 00:59N 46°12' W 123°49'0 0.0
2017-Dec-15 00:29N 46°12' W 123°49'0 0.0
2017-Dec-14 18:30N 46°12' W 123°49'0 0.2
2017-Dec-14 17:59N 46°12' W 123°49'0 0.1
2017-Dec-14 17:29N 46°12' W 123°49'0 0.1
2017-Dec-14 16:57N 46°12' W 123°49'0 0.1
2017-Dec-14 16:29N 46°12' W 123°49'0 0.1
2017-Dec-14 15:59N 46°12' W 123°49'0 0.3
2017-Dec-14 15:00N 46°12' W 123°49'0 0.0
2017-Dec-14 14:30N 46°12' W 123°49'0 0.0
2017-Dec-14 13:59N 46°12' W 123°49'0 0.0
2017-Dec-14 13:29N 46°12' W 123°49'0 0.0
2017-Dec-14 12:59N 46°12' W 123°49'0 0.0
2017-Dec-14 12:30N 46°12' W 123°49'0 0.0
2017-Dec-14 12:00N 46°12' W 123°49'0 0.0
2017-Dec-14 11:29N 46°12' W 123°49'0 0.0
2017-Dec-14 11:00N 46°12' W 123°49'0 0.0
2017-Dec-14 10:29N 46°12' W 123°49'0 0.0
2017-Dec-14 10:00N 46°12' W 123°49'0 0.0
2017-Dec-14 09:23N 46°12' W 123°49'0 0.0
2017-Dec-14 09:00N 46°12' W 123°49'0 0.0
2017-Dec-14 08:30N 46°12' W 123°49'0 0.0
2017-Dec-14 07:57N 46°12' W 123°49'0 0.0
2017-Dec-14 07:30N 46°12' W 123°49'0 0.2
2017-Dec-14 07:00N 46°12' W 123°49'0 0.4
2017-Dec-14 06:30N 46°12' W 123°49'0 0.1
2017-Dec-14 06:00N 46°12' W 123°49'0 0.1
2017-Dec-14 05:30N 46°12' W 123°49'0 0.1
2017-Dec-14 05:00N 46°12' W 123°49'0 0.2
2017-Dec-14 04:30N 46°12' W 123°49'0 0.4
2017-Dec-14 03:57N 46°12' W 123°49'0 0.1
2017-Dec-14 03:30N 46°12' W 123°49'0 0.0
2017-Dec-14 03:00N 46°12' W 123°49'0 0.0
2017-Dec-14 02:27N 46°12' W 123°49'0 0.0
2017-Dec-14 01:57N 46°12' W 123°49'0 0.0
2017-Dec-14 01:30N 46°12' W 123°49'0 0.0
2017-Dec-14 01:00N 46°12' W 123°49'0 0.0
2017-Dec-14 00:30N 46°12' W 123°49'0 0.0
2017-Dec-14 00:00N 46°12' W 123°49'0 0.0
2017-Dec-13 23:14N 46°12' W 123°49'0 0.0
2017-Dec-13 23:00N 46°12' W 123°49'0 0.0
2017-Dec-13 22:27N 46°12' W 123°49'0 0.0
2017-Dec-13 22:00N 46°12' W 123°49'0 0.0
2017-Dec-13 21:29N 46°12' W 123°49'0 0.0
2017-Dec-13 20:42N 46°12' W 123°49'0 0.0
2017-Dec-13 20:30N 46°12' W 123°49'0 0.0
2017-Dec-13 19:57N 46°12' W 123°49'0 0.1
2017-Dec-13 19:30N 46°12' W 123°49'0 0.1
2017-Dec-13 19:00N 46°12' W 123°49'0 0.1
2017-Dec-13 18:30N 46°12' W 123°49'0 0.3
2017-Dec-13 18:00N 46°12' W 123°49'0 0.2
2017-Dec-13 17:30N 46°12' W 123°49'0 0.1
2017-Dec-13 17:00N 46°12' W 123°49'0 0.1
2017-Dec-13 16:30N 46°12' W 123°49'0 0.0
2017-Dec-13 15:59N 46°12' W 123°49'0 0.1
2017-Dec-13 15:30N 46°12' W 123°49'0 0.4
2017-Dec-13 15:00N 46°12' W 123°49'0 0.1
2017-Dec-13 14:30N 46°12' W 123°49'0 0.0
2017-Dec-13 14:00N 46°12' W 123°49'0 0.0
2017-Dec-13 13:30N 46°12' W 123°49'0 0.0
2017-Dec-13 13:00N 46°12' W 123°49'0 0.0
2017-Dec-13 12:29N 46°12' W 123°49'0 0.0
2017-Dec-13 11:59N 46°12' W 123°49'0 0.0
2017-Dec-13 11:29N 46°12' W 123°49'0 0.0
2017-Dec-13 11:00N 46°12' W 123°49'0 0.0
2017-Dec-13 10:30N 46°12' W 123°49'0 0.0
2017-Dec-13 09:59N 46°12' W 123°49'0 0.0
2017-Dec-13 09:30N 46°12' W 123°49'0 0.0
2017-Dec-13 09:00N 46°12' W 123°49'0 0.0
2017-Dec-13 08:30N 46°12' W 123°49'0 0.0
2017-Dec-13 07:45N 46°12' W 123°49'0 0.0
2017-Dec-13 07:30N 46°12' W 123°49'0 0.0
2017-Dec-13 07:00N 46°12' W 123°49'0 0.0
2017-Dec-13 06:30N 46°12' W 123°49'0 0.0
2017-Dec-13 05:59N 46°12' W 123°49'0 0.2
2017-Dec-13 05:30N 46°12' W 123°49'0 0.1
2017-Dec-13 04:59N 46°12' W 123°49'0 0.1
2017-Dec-13 04:30N 46°12' W 123°49'0 0.0
2017-Dec-13 04:00N 46°12' W 123°49'0 0.0
2017-Dec-13 03:30N 46°12' W 123°49'0 0.0
2017-Dec-13 03:00N 46°12' W 123°49'0 0.0
2017-Dec-13 02:30N 46°12' W 123°49'0 0.0
2017-Dec-13 01:27N 46°12' W 123°49'0 0.0
2017-Dec-13 01:00N 46°12' W 123°49'0 0.0
2017-Dec-13 00:30N 46°12' W 123°49'0 0.0
2017-Dec-12 23:59N 46°12' W 123°49'0 0.0
2017-Dec-12 23:30N 46°12' W 123°49'0 0.0
2017-Dec-12 23:00N 46°12' W 123°49'0 0.0
2017-Dec-12 22:26N 46°12' W 123°49'0 0.0
2017-Dec-12 21:59N 46°12' W 123°49'0 0.0
2017-Dec-12 21:30N 46°12' W 123°49'0 0.0
2017-Dec-12 20:59N 46°12' W 123°49'0 0.0
2017-Dec-12 20:30N 46°12' W 123°49'0 0.0
2017-Dec-12 19:59N 46°12' W 123°49'0 0.0
2017-Dec-12 18:44N 46°12' W 123°49'0 0.1
2017-Dec-12 18:29N 46°12' W 123°49'0 0.0
2017-Dec-12 17:59N 46°12' W 123°49'0 0.3
2017-Dec-12 17:30N 46°12' W 123°49'0 0.2
2017-Dec-12 17:00N 46°12' W 123°49'0 0.0
2017-Dec-12 16:30N 46°12' W 123°49'0 0.1
2017-Dec-12 16:00N 46°12' W 123°49'0 0.1
2017-Dec-12 15:30N 46°12' W 123°49'0 0.0
2017-Dec-12 15:00N 46°12' W 123°49'0 0.2
2017-Dec-12 14:30N 46°12' W 123°49'0 0.4
2017-Dec-12 14:00N 46°12' W 123°49'0 0.0
2017-Dec-12 13:29N 46°12' W 123°49'0 0.1
2017-Dec-12 13:00N 46°12' W 123°49'0 0.0
2017-Dec-12 12:30N 46°12' W 123°49'0 0.0
2017-Dec-12 12:00N 46°12' W 123°49'0 0.0
2017-Dec-12 11:30N 46°12' W 123°49'0 0.0
2017-Dec-12 11:00N 46°12' W 123°49'0 0.0
2017-Dec-12 10:27N 46°12' W 123°49'0 0.0
2017-Dec-12 10:00N 46°12' W 123°49'0 0.0
2017-Dec-12 09:29N 46°12' W 123°49'0 0.0
2017-Dec-12 08:59N 46°12' W 123°49'0 0.2
2017-Dec-12 08:30N 46°12' W 123°49'1 2.5
2017-Dec-12 08:00N 46°12' W 123°51'4 7.3
2017-Dec-12 07:30N 46°12' W 123°56'5 9.6
2017-Dec-12 07:00N 46°15' W 124°01'5 9.2
2017-Dec-12 06:30N 46°14' W 124°07'610.6
2017-Dec-12 05:57N 46°12' W 124°15'6 8.3
2017-Dec-12 05:12N 46°11' W 124°24'1 7.1
2017-Dec-12 05:00N 46°10' W 124°26'0 0.5
2017-Dec-12 04:30N 46°11' W 124°26'0 0.8
2017-Dec-12 04:00N 46°11' W 124°25'0 0.9
2017-Dec-12 03:30N 46°11' W 124°26'3 5.9
2017-Dec-12 03:00N 46°12' W 124°30'1 2.1
2017-Dec-12 02:27N 46°12' W 124°31'1 1.3
2017-Dec-12 02:01N 46°12' W 124°31'1 0.8
2017-Dec-12 01:20N 46°11' W 124°30'0 1.4
2017-Dec-12 01:00N 46°11' W 124°31'510.4
2017-Dec-12 00:30N 46°13' W 124°38'611.8
2017-Dec-12 00:00N 46°14' W 124°47'713.2
2017-Dec-11 23:30N 46°14' W 124°56'713.2
2017-Dec-11 23:00N 46°15' W 125°05'713.6
2017-Dec-11 22:30N 46°15' W 125°15'713.3
2017-Dec-11 22:01N 46°16' W 125°25'713.4
2017-Dec-11 21:30N 46°17' W 125°35'713.4
2017-Dec-11 21:01N 46°18' W 125°44'713.3
2017-Dec-11 20:30N 46°18' W 125°54'713.3
2017-Dec-11 20:00N 46°19' W 126°03'713.4
2017-Dec-11 19:30N 46°20' W 126°13'813.0
2017-Dec-11 18:55N 46°21' W 126°24'1013.1
2017-Dec-11 18:08N 46°22' W 126°38'213.0
2017-Dec-11 18:00N 46°22' W 126°41'712.9
2017-Dec-11 17:27N 46°23' W 126°51'612.7
2017-Dec-11 17:00N 46°23' W 126°59'612.8
2017-Dec-11 16:30N 46°24' W 127°09'612.9
2017-Dec-11 16:01N 46°24' W 127°18'612.9
2017-Dec-11 15:31N 46°25' W 127°27'612.9
2017-Dec-11 15:00N 46°26' W 127°37'612.9
2017-Dec-11 14:30N 46°26' W 127°46'613.0
2017-Dec-11 14:00N 46°27' W 127°55'713.1
2017-Dec-11 13:30N 46°28' W 128°05'613.1
2017-Dec-11 13:01N 46°28' W 128°14'713.1
2017-Dec-11 12:30N 46°29' W 128°24'713.3
2017-Dec-11 12:00N 46°30' W 128°33'713.1
2017-Dec-11 11:29N 46°31' W 128°43'613.0
2017-Dec-11 11:00N 46°31' W 128°52'713.1
2017-Dec-11 10:30N 46°32' W 129°02'612.9
2017-Dec-11 10:01N 46°34' W 129°10'713.3
2017-Dec-11 09:31N 46°36' W 129°19'713.1
2017-Dec-11 09:01N 46°39' W 129°28'612.5
2017-Dec-11 08:30N 46°41' W 129°37'612.5
2017-Dec-11 08:01N 46°43' W 129°45'612.5
2017-Dec-11 07:31N 46°45' W 129°54'713.0
2017-Dec-11 07:00N 46°48' W 130°03'612.8
2017-Dec-11 06:30N 46°50' W 130°12'612.8
2017-Dec-11 06:00N 46°52' W 130°20'612.6
2017-Dec-11 05:30N 46°54' W 130°29'612.8
2017-Dec-11 05:00N 46°56' W 130°38'612.6
2017-Dec-11 04:30N 46°58' W 130°47'712.6
2017-Dec-11 03:57N 47°01' W 130°56'912.6
2017-Dec-11 03:14N 47°04' W 131°09'312.4
2017-Dec-11 02:59N 47°05' W 131°13'612.5
2017-Dec-11 02:30N 47°07' W 131°21'612.6
2017-Dec-11 02:00N 47°09' W 131°30'612.4
2017-Dec-11 01:30N 47°11' W 131°39'612.6
2017-Dec-11 01:00N 47°13' W 131°47'1412.4
2017-Dec-10 23:52N 47°18' W 132°07'412.1
2017-Dec-10 23:30N 47°19' W 132°13'  

Dump ship's entire track history